createdAt,value
2023-03-18T00:01:07.615Z,5.43
2023-03-18T00:03:37.423Z,4.73
2023-03-18T00:06:09.496Z,5.53
2023-03-18T00:08:39.418Z,4.20
2023-03-18T00:11:08.009Z,5.37
2023-03-18T00:13:36.098Z,5.93
2023-03-18T00:16:04.935Z,4.70
2023-03-18T00:18:34.375Z,3.77
2023-03-18T00:21:03.799Z,4.63
2023-03-18T00:23:34.489Z,4.60
2023-03-18T00:26:03.836Z,4.10
2023-03-18T00:28:32.653Z,4.53
2023-03-18T00:31:08.491Z,4.90
2023-03-18T00:33:37.952Z,4.63
2023-03-18T00:36:07.452Z,6.67
2023-03-18T00:38:36.978Z,5.27
2023-03-18T00:41:11.404Z,4.37
2023-03-18T00:43:46.113Z,5.53
2023-03-18T00:46:16.342Z,5.17
2023-03-18T00:48:44.955Z,7.23
2023-03-18T00:51:14.327Z,6.03
2023-03-18T00:53:44.981Z,4.80
2023-03-18T00:56:14.197Z,4.27
2023-03-18T00:58:42.411Z,4.27
2023-03-18T01:01:12.515Z,4.73
2023-03-18T01:03:42.987Z,6.97
2023-03-18T01:06:12.935Z,5.33
2023-03-18T01:08:42.990Z,5.23
2023-03-18T01:11:12.084Z,4.67
2023-03-18T01:13:40.753Z,6.13
2023-03-18T01:16:09.647Z,6.00
2023-03-18T01:18:38.932Z,5.57
2023-03-18T01:21:07.429Z,4.70
2023-03-18T01:23:39.709Z,5.93
2023-03-18T01:26:10.656Z,4.83
2023-03-18T01:28:42.342Z,5.67
2023-03-18T01:31:10.586Z,3.70
2023-03-18T01:33:40.278Z,5.57
2023-03-18T01:36:09.493Z,5.20
2023-03-18T01:38:37.649Z,4.00
2023-03-18T01:41:13.631Z,5.90
2023-03-18T01:43:43.994Z,4.13
2023-03-18T01:46:34.883Z,5.60
2023-03-18T01:49:06.281Z,4.50
2023-03-18T01:51:34.756Z,4.57
2023-03-18T01:54:06.031Z,5.57
2023-03-18T01:56:38.355Z,5.53
2023-03-18T01:59:07.909Z,5.17
2023-03-18T02:01:41.045Z,4.87
2023-03-18T02:04:11.409Z,7.50
2023-03-18T02:06:43.691Z,7.83
2023-03-18T02:09:12.922Z,6.37
2023-03-18T02:11:49.868Z,7.70
2023-03-18T02:14:23.740Z,7.23
2023-03-18T02:16:56.526Z,6.43
2023-03-18T02:19:37.867Z,7.63
2023-03-18T02:22:17.157Z,5.47
2023-03-18T02:24:56.366Z,5.67
2023-03-18T02:27:27.838Z,5.40
2023-03-18T02:30:00.374Z,7.33
2023-03-18T02:32:33.556Z,4.47
2023-03-18T02:35:08.191Z,6.50
2023-03-18T02:37:38.472Z,10.57
2023-03-18T02:40:15.346Z,7.67
2023-03-18T02:42:45.929Z,9.33
2023-03-18T02:45:29.927Z,8.43
2023-03-18T02:48:18.723Z,8.30
2023-03-18T02:50:47.462Z,7.30
2023-03-18T02:53:16.244Z,7.33
2023-03-18T02:55:45.011Z,6.90
2023-03-18T02:58:14.491Z,7.27
2023-03-18T03:00:45.609Z,7.83
2023-03-18T03:03:13.750Z,6.10
2023-03-18T03:05:42.000Z,7.20
2023-03-18T03:08:10.455Z,5.70
2023-03-18T03:10:42.397Z,4.83
2023-03-18T03:13:11.592Z,5.77
2023-03-18T03:15:42.821Z,7.40
2023-03-18T03:18:11.522Z,6.73
2023-03-18T03:20:39.703Z,8.70
2023-03-18T03:23:10.030Z,6.80
2023-03-18T03:25:38.428Z,5.47
2023-03-18T03:28:07.264Z,7.80
2023-03-18T03:30:36.626Z,7.57
2023-03-18T03:33:06.851Z,6.90
2023-03-18T03:35:35.834Z,9.00
2023-03-18T03:38:04.163Z,7.83
2023-03-18T03:40:32.859Z,8.60
2023-03-18T03:43:01.152Z,7.00
2023-03-18T03:45:29.660Z,9.63
2023-03-18T03:47:57.808Z,7.17
2023-03-18T03:50:27.563Z,8.23
2023-03-18T03:52:55.968Z,8.50
2023-03-18T03:55:25.144Z,8.17
2023-03-18T03:57:56.441Z,10.00
2023-03-18T04:00:26.126Z,10.00
2023-03-18T04:02:54.750Z,6.53
2023-03-18T04:05:25.594Z,11.00
2023-03-18T04:07:59.860Z,6.60
2023-03-18T04:10:38.846Z,6.70
2023-03-18T04:13:10.239Z,7.37
2023-03-18T04:15:39.043Z,9.57
2023-03-18T04:18:16.949Z,10.37
2023-03-18T04:20:46.249Z,8.10
2023-03-18T04:23:33.081Z,8.53
2023-03-18T04:26:01.522Z,8.77
2023-03-18T04:28:29.548Z,7.47
2023-03-18T04:30:58.324Z,8.53
2023-03-18T04:33:26.597Z,10.33
2023-03-18T04:35:54.784Z,7.50
2023-03-18T04:38:22.878Z,10.60
2023-03-18T04:40:54.267Z,8.07
2023-03-18T04:43:22.813Z,9.13
2023-03-18T04:45:52.881Z,10.07
2023-03-18T04:48:22.388Z,9.80
2023-03-18T04:50:50.623Z,11.10
2023-03-18T04:53:26.258Z,12.27
2023-03-18T04:55:56.940Z,9.03
2023-03-18T04:58:31.086Z,7.40
2023-03-18T05:01:10.124Z,10.67
2023-03-18T05:03:39.610Z,8.87
2023-03-18T05:06:09.364Z,11.10
2023-03-18T05:08:51.377Z,9.30
2023-03-18T05:11:21.018Z,11.17
2023-03-18T05:13:49.536Z,11.97
2023-03-18T05:16:20.157Z,11.07
2023-03-18T05:18:50.174Z,10.80
2023-03-18T05:21:18.370Z,12.73
2023-03-18T05:23:46.458Z,10.80
2023-03-18T05:26:17.322Z,11.50
2023-03-18T05:28:49.010Z,8.00
2023-03-18T05:31:25.802Z,10.33
2023-03-18T05:33:54.082Z,8.53
2023-03-18T05:36:23.297Z,11.57
2023-03-18T05:39:01.027Z,10.37
2023-03-18T05:41:29.412Z,10.07
2023-03-18T05:43:59.383Z,9.13
2023-03-18T05:46:29.005Z,9.50
2023-03-18T05:49:20.165Z,12.07
2023-03-18T05:52:11.595Z,10.23
2023-03-18T05:54:44.694Z,10.53
2023-03-18T05:57:16.363Z,11.93
2023-03-18T05:59:46.470Z,13.40
2023-03-18T06:02:14.696Z,12.03
2023-03-18T06:04:42.841Z,10.67
2023-03-18T06:07:12.183Z,14.50
2023-03-18T06:09:40.970Z,14.50
2023-03-18T06:12:09.649Z,11.47
2023-03-18T06:14:37.781Z,11.07
2023-03-18T06:17:09.486Z,10.90
2023-03-18T06:19:38.263Z,15.33
2023-03-18T06:22:06.358Z,14.27
2023-03-18T06:24:34.448Z,14.40
2023-03-18T06:27:02.519Z,14.17
2023-03-18T06:29:31.636Z,12.73
2023-03-18T06:32:10.051Z,14.63
2023-03-18T06:34:38.946Z,12.40
2023-03-18T06:37:07.865Z,16.27
2023-03-18T06:39:36.668Z,11.10
2023-03-18T06:42:08.569Z,11.40
2023-03-18T06:44:42.057Z,12.60
2023-03-18T06:47:18.876Z,11.20
2023-03-18T06:49:53.798Z,11.57
2023-03-18T06:52:28.740Z,11.37
2023-03-18T06:55:01.909Z,16.30
2023-03-18T06:57:30.091Z,12.13
2023-03-18T06:59:58.407Z,10.87
2023-03-18T07:02:28.355Z,15.00
2023-03-18T07:05:00.150Z,15.60
2023-03-18T07:07:30.816Z,9.90
2023-03-18T07:09:59.144Z,12.43
2023-03-18T07:12:28.523Z,9.93
2023-03-18T07:14:56.819Z,13.93
2023-03-18T07:17:25.329Z,12.37
2023-03-18T07:19:54.763Z,11.87
2023-03-18T07:22:23.245Z,11.33
2023-03-18T07:24:52.451Z,15.37
2023-03-18T07:27:20.615Z,11.93
2023-03-18T07:29:48.679Z,10.03
2023-03-18T07:32:16.951Z,12.97
2023-03-18T07:34:44.943Z,12.20
2023-03-18T07:37:14.821Z,14.07
2023-03-18T07:39:43.478Z,11.83
2023-03-18T07:42:12.171Z,14.13
2023-03-18T07:44:46.829Z,11.57
2023-03-18T07:47:15.623Z,11.63
2023-03-18T07:49:44.258Z,14.07
2023-03-18T07:52:13.772Z,14.90
2023-03-18T07:54:41.909Z,12.13
2023-03-18T07:57:10.500Z,12.10
2023-03-18T07:59:38.930Z,12.27
2023-03-18T08:02:08.262Z,12.50
2023-03-18T08:04:36.572Z,13.33
2023-03-18T08:07:04.695Z,14.37
2023-03-18T08:09:34.265Z,14.47
2023-03-18T08:12:02.284Z,12.53
2023-03-18T08:14:30.319Z,15.00
2023-03-18T08:17:01.591Z,12.57
2023-03-18T08:19:29.749Z,12.77
2023-03-18T08:21:57.795Z,13.27
2023-03-18T08:24:26.564Z,11.17
2023-03-18T08:26:56.702Z,13.50
2023-03-18T08:29:24.762Z,13.27
2023-03-18T08:31:52.861Z,11.77
2023-03-18T08:34:20.913Z,12.90
2023-03-18T08:36:49.433Z,13.37
2023-03-18T08:39:17.887Z,11.10
2023-03-18T08:41:45.976Z,14.23
2023-03-18T08:44:15.517Z,14.57
2023-03-18T08:46:43.564Z,13.73
2023-03-18T08:49:12.387Z,12.33
2023-03-18T08:51:40.973Z,14.17
2023-03-18T08:54:09.241Z,14.43
2023-03-18T08:56:38.172Z,12.67
2023-03-18T08:59:07.037Z,14.53
2023-03-18T09:01:36.554Z,15.57
2023-03-18T09:04:04.929Z,15.00
2023-03-18T09:06:33.324Z,15.10
2023-03-18T09:09:01.500Z,14.70
2023-03-18T09:11:29.795Z,15.63
2023-03-18T09:13:58.129Z,17.00
2023-03-18T09:16:26.266Z,16.07
2023-03-18T09:18:56.165Z,16.40
2023-03-18T09:21:24.232Z,14.23
2023-03-18T09:23:52.786Z,14.37
2023-03-18T09:26:21.199Z,14.47
2023-03-18T09:28:49.317Z,15.20
2023-03-18T09:31:18.171Z,16.77
2023-03-18T09:33:47.033Z,17.03
2023-03-18T09:36:16.575Z,14.23
2023-03-18T09:38:44.646Z,13.73
2023-03-18T09:41:24.813Z,14.67
2023-03-18T09:44:04.333Z,15.00
2023-03-18T09:46:42.751Z,14.97
2023-03-18T09:49:34.172Z,14.77
2023-03-18T09:52:14.930Z,12.43
2023-03-18T09:54:48.429Z,13.57
2023-03-18T09:57:23.032Z,14.20
2023-03-18T09:59:55.380Z,15.33
2023-03-18T10:02:30.053Z,13.93
2023-03-18T10:05:01.884Z,15.77
2023-03-18T10:07:35.151Z,13.70
2023-03-18T10:10:07.999Z,14.00
2023-03-18T10:12:38.165Z,17.27
2023-03-18T10:15:14.781Z,14.93
2023-03-18T10:17:45.544Z,14.20
2023-03-18T10:20:33.933Z,14.03
2023-03-18T10:23:12.906Z,13.47
2023-03-18T10:25:44.732Z,16.43
2023-03-18T10:28:37.765Z,17.23
2023-03-18T10:31:17.910Z,12.40
2023-03-18T10:33:51.709Z,12.80
2023-03-18T10:36:23.386Z,11.13
2023-03-18T10:38:56.206Z,12.97
2023-03-18T10:41:28.782Z,13.20
2023-03-18T10:43:58.476Z,12.10
2023-03-18T10:46:28.333Z,11.10
2023-03-18T10:49:01.502Z,13.17
2023-03-18T10:51:33.426Z,10.57
2023-03-18T10:54:10.742Z,10.97
2023-03-18T10:56:39.111Z,10.60
2023-03-18T10:59:15.276Z,12.93
2023-03-18T11:01:46.011Z,12.27
2023-03-18T11:04:15.915Z,9.60
2023-03-18T11:06:48.411Z,10.70
2023-03-18T11:09:20.784Z,14.27
2023-03-18T11:11:49.853Z,11.93
2023-03-18T11:14:22.270Z,10.13
2023-03-18T11:16:57.949Z,11.53
2023-03-18T11:19:32.528Z,10.30
2023-03-18T11:22:20.548Z,9.87
2023-03-18T11:25:02.709Z,12.80
2023-03-18T11:27:38.490Z,12.40
2023-03-18T11:30:32.724Z,10.17
2023-03-18T11:33:07.183Z,11.90
2023-03-18T11:35:40.370Z,8.40
2023-03-18T11:38:16.208Z,8.07
2023-03-18T11:40:46.312Z,11.87
2023-03-18T11:43:19.524Z,9.33
2023-03-18T11:45:52.138Z,8.10
2023-03-18T11:48:30.334Z,8.50
2023-03-18T11:51:27.358Z,8.03
2023-03-18T11:54:15.279Z,9.20
2023-03-18T11:56:47.767Z,7.40
2023-03-18T11:59:33.492Z,8.27
2023-03-18T12:02:17.436Z,9.13
2023-03-18T12:05:08.147Z,7.60
2023-03-18T12:07:58.077Z,8.53
2023-03-18T12:10:32.708Z,8.80
2023-03-18T12:13:19.574Z,8.73
2023-03-18T12:15:55.829Z,8.47
2023-03-18T12:18:42.723Z,8.80
2023-03-18T12:21:26.969Z,7.47
2023-03-18T12:24:22.832Z,8.63
2023-03-18T12:26:59.633Z,10.23
2023-03-18T12:29:49.145Z,11.67
2023-03-18T12:32:27.338Z,9.77
2023-03-18T12:35:11.659Z,9.47
2023-03-18T12:37:52.441Z,10.67
2023-03-18T12:40:46.811Z,13.43
2023-03-18T12:43:40.192Z,14.37
2023-03-18T12:46:21.716Z,12.87
2023-03-18T12:48:53.809Z,13.97
2023-03-18T12:51:27.888Z,13.67
2023-03-18T12:53:59.879Z,14.10
2023-03-18T12:56:31.050Z,13.83
2023-03-18T12:59:09.376Z,14.00
2023-03-18T13:01:45.380Z,15.43
2023-03-18T13:04:17.298Z,15.03
2023-03-18T13:06:49.378Z,14.37
2023-03-18T13:09:26.542Z,17.37
2023-03-18T13:12:05.685Z,15.37
2023-03-18T13:14:44.620Z,17.80
2023-03-18T13:17:16.571Z,17.73
2023-03-18T13:19:45.827Z,16.37
2023-03-18T13:22:33.930Z,19.90
2023-03-18T13:25:12.951Z,18.80
2023-03-18T13:27:58.049Z,18.27
2023-03-18T13:30:35.876Z,18.67
2023-03-18T13:33:37.878Z,20.80
2023-03-18T13:36:28.608Z,20.90
2023-03-18T13:39:27.125Z,20.33
2023-03-18T13:42:13.893Z,20.10
2023-03-18T13:44:46.189Z,18.97
2023-03-18T13:47:19.126Z,20.33
2023-03-18T13:49:49.013Z,20.30
2023-03-18T13:52:27.124Z,17.70
2023-03-18T13:54:55.665Z,17.20
2023-03-18T13:57:43.514Z,19.47
2023-03-18T14:00:34.744Z,18.70
2023-03-18T14:03:29.931Z,18.70
2023-03-18T14:06:39.316Z,17.90
2023-03-18T14:09:33.313Z,21.30
2023-03-18T14:12:19.765Z,19.83
2023-03-18T14:15:08.113Z,20.77
2023-03-18T14:17:48.754Z,18.63
2023-03-18T14:20:27.228Z,19.70
2023-03-18T14:22:58.256Z,20.43
2023-03-18T14:25:42.034Z,23.37
2023-03-18T14:28:28.570Z,20.47
2023-03-18T14:31:22.182Z,24.27
2023-03-18T14:34:23.175Z,22.30
2023-03-18T14:37:29.474Z,19.90
2023-03-18T14:40:07.196Z,20.27
2023-03-18T14:42:56.537Z,20.97
2023-03-18T14:45:27.562Z,21.77
2023-03-18T14:47:57.646Z,20.67
2023-03-18T14:50:41.978Z,20.50
2023-03-18T14:53:20.198Z,19.40
2023-03-18T14:55:51.478Z,21.60
2023-03-18T14:58:21.646Z,21.63
2023-03-18T15:00:52.765Z,20.40
2023-03-18T15:03:24.880Z,17.20
2023-03-18T15:05:57.953Z,17.27
2023-03-18T15:08:37.458Z,19.20
2023-03-18T15:11:14.536Z,16.60
2023-03-18T15:13:43.575Z,21.60
2023-03-18T15:16:14.205Z,16.00
2023-03-18T15:18:43.585Z,19.60
2023-03-18T15:21:16.290Z,17.23
2023-03-18T15:23:49.732Z,15.53
2023-03-18T15:26:23.556Z,15.43
2023-03-18T15:28:57.118Z,18.27
2023-03-18T15:31:27.410Z,16.27
2023-03-18T15:34:13.371Z,17.30
2023-03-18T15:36:43.257Z,18.07
2023-03-18T15:39:22.482Z,18.27
2023-03-18T15:41:56.972Z,16.63
2023-03-18T15:44:28.657Z,19.80
2023-03-18T15:47:04.112Z,16.97
2023-03-18T15:49:33.226Z,18.03
2023-03-18T15:52:03.090Z,18.70
2023-03-18T15:54:39.205Z,15.53
2023-03-18T15:57:14.753Z,28.50
2023-03-18T15:59:45.094Z,38.73
2023-03-18T16:02:18.476Z,28.57
2023-03-18T16:04:48.353Z,20.00
2023-03-18T16:07:21.510Z,21.60
2023-03-18T16:09:51.266Z,20.30
2023-03-18T16:12:23.525Z,20.50
2023-03-18T16:14:53.010Z,20.17
2023-03-18T16:17:22.355Z,21.17
2023-03-18T16:19:54.339Z,24.33
2023-03-18T16:22:22.806Z,21.80
2023-03-18T16:24:51.031Z,38.43
2023-03-18T16:27:29.519Z,21.90
2023-03-18T16:29:57.677Z,28.87
2023-03-18T16:32:26.213Z,22.17
2023-03-18T16:34:54.842Z,27.87
2023-03-18T16:37:25.867Z,30.20
2023-03-18T16:39:55.890Z,29.93
2023-03-18T16:42:27.147Z,29.57
2023-03-18T16:44:55.938Z,18.60
2023-03-18T16:47:27.245Z,19.17
2023-03-18T16:49:56.410Z,20.67
2023-03-18T16:52:25.324Z,24.88
2023-03-18T16:54:53.426Z,26.63
2023-03-18T16:57:23.572Z,25.67
2023-03-18T16:59:55.813Z,24.93
2023-03-18T17:02:33.129Z,23.00
2023-03-18T17:05:02.002Z,19.40
2023-03-18T17:07:30.632Z,23.90
2023-03-18T17:09:58.661Z,27.90
2023-03-18T17:12:27.240Z,19.50
2023-03-18T17:14:58.354Z,18.10
2023-03-18T17:17:29.722Z,17.73
2023-03-18T17:20:00.481Z,19.87
2023-03-18T17:22:30.638Z,18.93
2023-03-18T17:25:00.103Z,17.37
2023-03-18T17:27:32.667Z,19.87
2023-03-18T17:30:02.411Z,19.47
2023-03-18T17:32:30.521Z,17.87
2023-03-18T17:34:58.590Z,16.50
2023-03-18T17:37:26.642Z,15.30
2023-03-18T17:39:54.787Z,17.00
2023-03-18T17:42:30.108Z,16.33
2023-03-18T17:45:04.930Z,16.87
2023-03-18T17:47:33.266Z,18.37
2023-03-18T17:50:01.596Z,18.80
2023-03-18T17:52:29.739Z,19.53
2023-03-18T17:54:57.799Z,22.70
2023-03-18T17:57:26.982Z,21.70
2023-03-18T17:59:55.286Z,22.30
2023-03-18T18:02:25.260Z,21.20
2023-03-18T18:04:53.380Z,22.37
2023-03-18T18:07:23.591Z,20.50
2023-03-18T18:09:51.783Z,22.70
2023-03-18T18:12:25.252Z,24.07
2023-03-18T18:14:53.568Z,24.83
2023-03-18T18:17:21.849Z,24.17
2023-03-18T18:19:51.283Z,25.00
2023-03-18T18:22:21.960Z,27.43
2023-03-18T18:24:52.165Z,28.23
2023-03-18T18:27:20.542Z,27.53
2023-03-18T18:29:48.963Z,25.50
2023-03-18T18:32:17.015Z,24.73
2023-03-18T18:34:45.353Z,25.87
2023-03-18T18:37:14.891Z,24.17
2023-03-18T18:39:43.598Z,25.23
2023-03-18T18:42:12.366Z,24.80
2023-03-18T18:44:40.419Z,24.40
2023-03-18T18:47:18.834Z,27.73
2023-03-18T18:49:47.561Z,23.60
2023-03-18T18:52:17.042Z,23.63
2023-03-18T18:54:45.114Z,23.43
2023-03-18T18:57:25.273Z,23.43
2023-03-18T18:59:53.383Z,23.40
2023-03-18T19:02:30.533Z,17.90
2023-03-18T19:04:59.933Z,20.27
2023-03-18T19:07:30.299Z,21.73
2023-03-18T19:09:58.369Z,17.17
2023-03-18T19:12:27.543Z,19.43
2023-03-18T19:14:55.924Z,17.07
2023-03-18T19:17:24.320Z,17.03
2023-03-18T19:19:53.727Z,15.83
2023-03-18T19:22:22.647Z,17.07
2023-03-18T19:24:52.768Z,14.70
2023-03-18T19:27:24.728Z,15.30
2023-03-18T19:29:54.504Z,14.73
2023-03-18T19:32:24.520Z,14.50
2023-03-18T19:34:54.234Z,16.20
2023-03-18T19:37:27.298Z,15.07
2023-03-18T19:39:57.496Z,14.93
2023-03-18T19:42:26.032Z,15.77
2023-03-18T19:44:54.384Z,16.37
2023-03-18T19:47:25.834Z,17.63
2023-03-18T19:49:57.042Z,18.57
2023-03-18T19:52:27.212Z,19.40
2023-03-18T19:54:57.603Z,19.40
2023-03-18T19:57:27.678Z,20.60
2023-03-18T19:59:58.249Z,27.07
2023-03-18T20:02:28.676Z,22.33
2023-03-18T20:04:59.333Z,23.90
2023-03-18T20:07:29.971Z,23.80
2023-03-18T20:09:59.558Z,23.13
2023-03-18T20:12:32.706Z,22.93
2023-03-18T20:15:00.956Z,22.57
2023-03-18T20:17:37.380Z,20.37
2023-03-18T20:20:07.319Z,20.97
2023-03-18T20:22:38.279Z,20.60
2023-03-18T20:25:16.910Z,20.07
2023-03-18T20:27:45.477Z,18.83
2023-03-18T20:30:33.391Z,27.17
2023-03-18T20:33:04.203Z,22.57
2023-03-18T20:35:35.043Z,23.07
2023-03-18T20:38:11.063Z,20.37
2023-03-18T20:40:41.232Z,19.23
2023-03-18T20:43:18.511Z,17.77
2023-03-18T20:45:46.833Z,22.27
2023-03-18T20:48:15.118Z,19.20
2023-03-18T20:50:43.276Z,21.27
2023-03-18T20:53:17.304Z,18.43
2023-03-18T20:55:47.464Z,18.53
2023-03-18T20:58:17.031Z,20.50
2023-03-18T21:00:46.637Z,21.07
2023-03-18T21:03:25.716Z,20.73
2023-03-18T21:05:56.157Z,17.37
2023-03-18T21:08:28.941Z,17.60
2023-03-18T21:11:01.880Z,17.97
2023-03-18T21:13:32.706Z,20.10
2023-03-18T21:16:01.989Z,21.87
2023-03-18T21:18:30.718Z,19.87
2023-03-18T21:20:59.032Z,21.17
2023-03-18T21:23:29.247Z,19.77
2023-03-18T21:25:59.218Z,19.53
2023-03-18T21:28:30.100Z,24.67
2023-03-18T21:30:59.136Z,21.50
2023-03-18T21:33:28.678Z,23.57
2023-03-18T21:35:57.699Z,21.80
2023-03-18T21:38:27.203Z,21.37
2023-03-18T21:40:55.997Z,21.73
2023-03-18T21:43:29.961Z,21.47
2023-03-18T21:45:58.151Z,21.00
2023-03-18T21:48:26.408Z,19.43
2023-03-18T21:50:55.699Z,19.87
2023-03-18T21:53:25.354Z,21.77
2023-03-18T21:55:54.558Z,20.73
2023-03-18T21:58:24.758Z,21.10
2023-03-18T22:00:56.072Z,19.17
2023-03-18T22:03:28.511Z,21.17
2023-03-18T22:05:59.362Z,21.63
2023-03-18T22:08:27.396Z,20.30
2023-03-18T22:10:55.528Z,23.10
2023-03-18T22:13:24.936Z,20.00
2023-03-18T22:15:55.397Z,20.47
2023-03-18T22:18:24.294Z,19.63
2023-03-18T22:20:52.921Z,20.67
2023-03-18T22:23:23.393Z,20.90
2023-03-18T22:25:53.268Z,20.17
2023-03-18T22:28:21.911Z,24.27
2023-03-18T22:30:52.406Z,20.97
2023-03-18T22:33:26.515Z,21.53
2023-03-18T22:35:55.085Z,20.33
2023-03-18T22:38:24.600Z,20.47
2023-03-18T22:40:55.062Z,21.30
2023-03-18T22:43:31.840Z,19.80
2023-03-18T22:46:01.231Z,17.70
2023-03-18T22:48:31.076Z,20.10
2023-03-18T22:51:00.432Z,19.37
2023-03-18T22:53:31.618Z,20.07
2023-03-18T22:56:09.362Z,20.57
2023-03-18T22:58:38.262Z,17.93
2023-03-18T23:01:07.920Z,17.63
2023-03-18T23:03:40.332Z,16.93
2023-03-18T23:06:09.345Z,16.97
2023-03-18T23:08:37.522Z,16.13
2023-03-18T23:11:05.728Z,16.13
2023-03-18T23:13:37.309Z,17.23
2023-03-18T23:16:06.742Z,15.87
2023-03-18T23:18:34.901Z,16.20
2023-03-18T23:21:05.377Z,16.00
2023-03-18T23:23:33.498Z,16.27
2023-03-18T23:26:01.898Z,16.50
2023-03-18T23:28:29.960Z,13.87
2023-03-18T23:30:58.077Z,13.07
2023-03-18T23:33:26.173Z,14.07
2023-03-18T23:35:54.197Z,13.17
2023-03-18T23:38:23.611Z,13.50
2023-03-18T23:40:51.856Z,11.87
2023-03-18T23:43:21.781Z,14.13
2023-03-18T23:45:49.947Z,13.87
2023-03-18T23:48:18.123Z,14.07
2023-03-18T23:50:47.229Z,15.40
2023-03-18T23:53:16.256Z,14.70
2023-03-18T23:55:46.104Z,14.03
2023-03-18T23:58:14.364Z,15.63
